createdAt,value
2018-11-27T00:00:33.827Z,16.77
2018-11-27T00:03:04.420Z,16.27
2018-11-27T00:05:33.740Z,17.43
2018-11-27T00:08:02.180Z,17.80
2018-11-27T00:10:31.719Z,16.80
2018-11-27T00:13:00.132Z,16.33
2018-11-27T00:15:28.738Z,17.90
2018-11-27T00:17:57.154Z,16.40
2018-11-27T00:20:25.584Z,16.53
2018-11-27T00:22:54.025Z,19.10
2018-11-27T00:25:22.406Z,17.07
2018-11-27T00:27:50.828Z,18.97
2018-11-27T00:30:21.078Z,19.97
2018-11-27T00:32:50.527Z,21.93
2018-11-27T00:35:19.908Z,22.40
2018-11-27T00:37:48.355Z,18.90
2018-11-27T00:40:18.701Z,20.93
2018-11-27T00:42:47.104Z,24.27
2018-11-27T00:45:16.578Z,24.87
2018-11-27T00:47:46.023Z,21.63
2018-11-27T00:50:15.466Z,23.10
2018-11-27T00:52:43.851Z,21.80
2018-11-27T00:55:14.471Z,24.57
2018-11-27T00:57:43.526Z,24.50
2018-11-27T01:00:15.180Z,24.97
2018-11-27T01:02:43.566Z,25.17
2018-11-27T01:05:17.158Z,25.57
2018-11-27T01:07:45.715Z,27.53
2018-11-27T01:10:15.310Z,26.23
2018-11-27T01:12:43.704Z,26.20
2018-11-27T01:15:12.903Z,25.80
2018-11-27T01:17:44.284Z,25.83
2018-11-27T01:20:14.999Z,26.03
2018-11-27T01:22:44.310Z,26.60
2018-11-27T01:25:13.579Z,26.27
2018-11-27T01:27:41.958Z,26.57
2018-11-27T01:30:11.658Z,27.67
2018-11-27T01:32:40.042Z,26.83
2018-11-27T01:35:11.282Z,25.30
2018-11-27T01:37:39.703Z,27.80
2018-11-27T01:40:15.991Z,25.90
2018-11-27T01:42:44.674Z,22.67
2018-11-27T01:45:14.186Z,24.60
2018-11-27T01:47:42.597Z,24.53
2018-11-27T01:50:13.089Z,27.90
2018-11-27T01:52:42.338Z,23.77
2018-11-27T01:55:13.719Z,25.63
2018-11-27T01:57:42.141Z,23.03
2018-11-27T02:00:20.886Z,25.80
2018-11-27T02:02:49.418Z,24.80
2018-11-27T02:05:17.825Z,25.00
2018-11-27T02:07:46.202Z,22.87
2018-11-27T02:10:14.586Z,23.07
2018-11-27T02:12:45.042Z,23.60
2018-11-27T02:15:19.593Z,25.17
2018-11-27T02:17:48.038Z,26.93
2018-11-27T02:20:16.443Z,22.30
2018-11-27T02:22:44.869Z,25.87
2018-11-27T02:25:17.536Z,23.07
2018-11-27T02:27:46.162Z,24.73
2018-11-27T02:30:16.548Z,25.13
2018-11-27T02:32:44.959Z,26.23
2018-11-27T02:35:29.055Z,23.93
2018-11-27T02:37:58.449Z,25.27
2018-11-27T02:40:26.943Z,27.03
2018-11-27T02:42:55.351Z,22.20
2018-11-27T02:45:24.710Z,27.80
2018-11-27T02:47:54.001Z,26.63
2018-11-27T02:50:23.437Z,24.83
2018-11-27T02:52:51.835Z,23.87
2018-11-27T02:55:21.267Z,24.43
2018-11-27T02:57:50.228Z,23.67
2018-11-27T03:00:19.707Z,26.03
2018-11-27T03:02:48.103Z,26.43
2018-11-27T03:05:22.013Z,25.07
2018-11-27T03:07:50.434Z,24.03
2018-11-27T03:10:18.850Z,29.00
2018-11-27T03:12:47.433Z,24.20
2018-11-27T03:15:16.918Z,24.20
2018-11-27T03:17:45.347Z,23.57
2018-11-27T03:20:15.522Z,27.70
2018-11-27T03:22:43.968Z,25.97
2018-11-27T03:25:15.805Z,26.20
2018-11-27T03:27:45.035Z,30.60
2018-11-27T03:30:16.482Z,27.23
2018-11-27T03:32:44.967Z,24.47
2018-11-27T03:35:15.218Z,26.50
2018-11-27T03:37:44.625Z,26.40
2018-11-27T03:40:20.951Z,26.17
2018-11-27T03:42:49.403Z,27.07
2018-11-27T03:45:18.579Z,26.70
2018-11-27T03:47:47.009Z,26.67
2018-11-27T03:50:16.660Z,27.97
2018-11-27T03:52:45.035Z,27.90
2018-11-27T03:55:13.737Z,27.63
2018-11-27T03:57:42.113Z,27.47
2018-11-27T04:00:17.435Z,30.13
2018-11-27T04:02:47.204Z,27.37
2018-11-27T04:05:15.788Z,27.90
2018-11-27T04:07:45.151Z,28.57
2018-11-27T04:10:16.212Z,29.43
2018-11-27T04:12:44.608Z,28.20
2018-11-27T04:15:13.273Z,33.00
2018-11-27T04:17:41.895Z,29.27
2018-11-27T04:20:11.451Z,32.00
2018-11-27T04:22:40.343Z,31.53
2018-11-27T04:25:13.923Z,32.97
2018-11-27T04:27:42.672Z,32.03
2018-11-27T04:30:12.414Z,28.83
2018-11-27T04:32:40.990Z,31.10
2018-11-27T04:35:11.689Z,30.30
2018-11-27T04:37:40.077Z,32.33
2018-11-27T04:40:10.879Z,33.67
2018-11-27T04:42:39.289Z,31.60
2018-11-27T04:45:12.382Z,33.63
2018-11-27T04:47:40.754Z,52.30
2018-11-27T04:50:10.503Z,32.23
2018-11-27T04:52:38.924Z,37.57
2018-11-27T04:55:08.975Z,34.07
2018-11-27T04:57:37.459Z,35.47
2018-11-27T05:00:12.349Z,33.03
2018-11-27T05:02:40.722Z,35.80
2018-11-27T05:05:10.194Z,34.30
2018-11-27T05:07:38.801Z,34.87
2018-11-27T05:10:12.737Z,35.00
2018-11-27T05:12:41.548Z,36.67
2018-11-27T05:15:18.775Z,36.13
2018-11-27T05:17:48.426Z,39.80
2018-11-27T05:20:17.194Z,34.43
2018-11-27T05:22:45.669Z,34.37
2018-11-27T05:25:15.180Z,34.07
2018-11-27T05:27:45.806Z,51.13
2018-11-27T05:30:20.401Z,39.93
2018-11-27T05:32:48.790Z,40.10
2018-11-27T05:35:18.366Z,39.63
2018-11-27T05:37:48.802Z,32.50
2018-11-27T05:40:21.440Z,37.63
2018-11-27T05:42:52.119Z,36.87
2018-11-27T05:45:21.402Z,37.50
2018-11-27T05:47:49.811Z,38.47
2018-11-27T05:50:18.851Z,36.67
2018-11-27T05:52:47.256Z,40.70
2018-11-27T05:55:16.264Z,37.97
2018-11-27T05:57:45.896Z,39.90
2018-11-27T06:00:17.220Z,39.93
2018-11-27T06:02:46.286Z,38.03
2018-11-27T06:05:16.720Z,38.03
2018-11-27T06:07:45.158Z,36.53
2018-11-27T06:10:14.403Z,39.77
2018-11-27T06:12:42.836Z,37.00
2018-11-27T06:15:12.663Z,38.93
2018-11-27T06:17:41.491Z,39.63
2018-11-27T06:20:14.306Z,38.13
2018-11-27T06:22:43.758Z,43.70
2018-11-27T06:25:16.156Z,34.87
2018-11-27T06:27:45.905Z,38.00
2018-11-27T06:30:17.511Z,40.47
2018-11-27T06:32:45.936Z,35.37
2018-11-27T06:35:15.714Z,37.63
2018-11-27T06:37:44.092Z,36.57
2018-11-27T06:40:13.906Z,37.43
2018-11-27T06:42:42.831Z,39.50
2018-11-27T06:45:14.586Z,37.80
2018-11-27T06:47:43.267Z,38.30
2018-11-27T06:50:12.763Z,42.80
2018-11-27T06:52:41.139Z,38.97
2018-11-27T06:55:11.901Z,41.87
2018-11-27T06:57:40.243Z,43.60
2018-11-27T07:00:12.754Z,39.37
2018-11-27T07:02:41.193Z,37.83
2018-11-27T07:05:11.303Z,40.87
2018-11-27T07:07:40.110Z,41.50
2018-11-27T07:10:12.958Z,38.00
2018-11-27T07:12:41.341Z,38.67
2018-11-27T07:15:11.990Z,40.50
2018-11-27T07:17:40.372Z,37.50
2018-11-27T07:20:10.479Z,41.23
2018-11-27T07:22:38.895Z,39.80
2018-11-27T07:25:10.957Z,39.87
2018-11-27T07:27:39.619Z,41.03
2018-11-27T07:30:11.203Z,38.27
2018-11-27T07:32:39.785Z,41.53
2018-11-27T07:35:09.678Z,43.17
2018-11-27T07:37:38.092Z,41.27
2018-11-27T07:40:10.291Z,44.43
2018-11-27T07:42:38.719Z,47.77
2018-11-27T07:45:11.731Z,48.30
2018-11-27T07:47:40.153Z,45.87
2018-11-27T07:50:09.279Z,43.27
2018-11-27T07:52:37.679Z,45.57
2018-11-27T07:55:08.805Z,48.07
2018-11-27T07:57:37.156Z,46.77
2018-11-27T08:00:08.460Z,47.67
2018-11-27T08:02:36.846Z,47.70
2018-11-27T08:05:07.087Z,49.80
2018-11-27T08:07:35.540Z,46.23
2018-11-27T08:10:04.536Z,42.50
2018-11-27T08:12:32.942Z,40.80
2018-11-27T08:15:01.332Z,45.03
2018-11-27T08:17:29.716Z,44.13
2018-11-27T08:19:58.100Z,45.77
2018-11-27T08:22:26.484Z,41.03
2018-11-27T08:24:54.883Z,46.37
2018-11-27T08:27:23.265Z,42.03
2018-11-27T08:29:51.642Z,45.17
2018-11-27T08:32:20.043Z,46.23
2018-11-27T08:34:48.427Z,45.40
2018-11-27T08:37:16.855Z,48.17
2018-11-27T08:39:45.279Z,42.97
2018-11-27T08:42:13.698Z,45.00
2018-11-27T08:44:42.066Z,43.70
2018-11-27T08:47:10.463Z,45.30
2018-11-27T08:49:39.092Z,46.13
2018-11-27T08:52:07.534Z,41.80
2018-11-27T08:54:35.937Z,40.87
2018-11-27T08:57:04.548Z,43.43
2018-11-27T08:59:32.927Z,52.00
2018-11-27T09:02:01.338Z,51.17
2018-11-27T09:04:29.722Z,48.67
2018-11-27T09:06:58.256Z,53.13
2018-11-27T09:09:26.647Z,52.03
2018-11-27T09:11:55.028Z,47.57
2018-11-27T09:14:23.436Z,55.13
2018-11-27T09:16:51.812Z,51.80
2018-11-27T09:19:20.308Z,47.03
2018-11-27T09:21:48.685Z,45.93
2018-11-27T09:24:17.074Z,46.17
2018-11-27T09:26:45.467Z,44.17
2018-11-27T09:29:13.949Z,44.73
2018-11-27T09:31:42.358Z,45.93
2018-11-27T09:34:10.764Z,44.63
2018-11-27T09:36:39.167Z,43.53
2018-11-27T09:39:09.410Z,50.40
2018-11-27T09:41:38.016Z,44.80
2018-11-27T09:44:07.303Z,43.60
2018-11-27T09:46:35.690Z,50.63
2018-11-27T09:49:04.115Z,48.30
2018-11-27T09:51:32.495Z,45.80
2018-11-27T09:54:00.862Z,45.53
2018-11-27T09:56:29.249Z,48.00
2018-11-27T09:58:57.651Z,45.67
2018-11-27T10:01:26.062Z,46.23
2018-11-27T10:03:55.470Z,44.40
2018-11-27T10:06:22.983Z,41.63
2018-11-27T10:08:51.420Z,45.23
2018-11-27T10:11:20.047Z,42.00
2018-11-27T10:13:49.128Z,43.80
2018-11-27T10:16:17.514Z,46.23
2018-11-27T10:18:45.896Z,45.17
2018-11-27T10:21:14.310Z,43.50
2018-11-27T10:23:42.721Z,45.80
2018-11-27T10:26:11.115Z,44.60
2018-11-27T10:28:39.523Z,45.53
2018-11-27T10:31:07.920Z,43.07
2018-11-27T10:33:36.300Z,43.23
2018-11-27T10:36:05.107Z,41.57
2018-11-27T10:38:33.498Z,41.43
2018-11-27T10:41:01.919Z,43.27
2018-11-27T10:43:30.319Z,44.63
2018-11-27T10:45:58.737Z,46.83
2018-11-27T10:48:27.110Z,43.43
2018-11-27T10:50:55.526Z,41.53
2018-11-27T10:53:24.063Z,43.37
2018-11-27T10:55:52.695Z,44.33
2018-11-27T10:58:21.107Z,41.63
2018-11-27T11:00:54.954Z,39.17
2018-11-27T11:03:25.431Z,38.93
2018-11-27T11:05:55.306Z,41.03
2018-11-27T11:08:24.035Z,38.73
2018-11-27T11:10:52.547Z,40.87
2018-11-27T11:13:20.993Z,36.97
2018-11-27T11:15:49.535Z,34.03
2018-11-27T11:18:17.950Z,35.43
2018-11-27T11:20:46.538Z,35.93
2018-11-27T11:23:15.068Z,38.53
2018-11-27T11:25:50.238Z,35.30
2018-11-27T11:28:20.774Z,38.57
2018-11-27T11:30:49.173Z,36.23
2018-11-27T11:33:17.615Z,32.80
2018-11-27T11:35:46.003Z,32.53
2018-11-27T11:38:14.446Z,31.40
2018-11-27T11:40:42.862Z,31.27
2018-11-27T11:43:11.235Z,32.50
2018-11-27T11:45:39.630Z,30.30
2018-11-27T11:48:08.048Z,34.83
2018-11-27T11:50:36.452Z,34.20
2018-11-27T11:53:22.710Z,33.83
2018-11-27T11:55:51.471Z,32.10
2018-11-27T11:58:19.855Z,35.10
2018-11-27T12:00:52.917Z,32.50
2018-11-27T12:03:21.342Z,29.67
2018-11-27T12:05:51.089Z,31.07
2018-11-27T12:08:19.679Z,32.33
2018-11-27T12:10:48.136Z,29.83
2018-11-27T12:13:16.567Z,30.60
2018-11-27T12:15:44.928Z,29.23
2018-11-27T12:18:13.326Z,30.47
2018-11-27T12:20:41.867Z,29.70
2018-11-27T12:23:11.386Z,30.20
2018-11-27T12:25:40.538Z,29.57
2018-11-27T12:28:14.706Z,28.87
2018-11-27T12:30:38.371Z,26.63
2018-11-27T12:33:07.163Z,30.80
2018-11-27T12:35:35.811Z,28.73
2018-11-27T12:38:04.320Z,32.20
2018-11-27T12:40:32.742Z,25.43
2018-11-27T12:43:01.174Z,25.97
2018-11-27T12:45:31.478Z,25.13
2018-11-27T12:48:01.051Z,27.93
2018-11-27T12:50:47.511Z,26.00
2018-11-27T12:53:17.317Z,24.43
2018-11-27T12:55:47.208Z,25.73
2018-11-27T12:58:15.730Z,23.47
2018-11-27T13:00:44.147Z,24.20
2018-11-27T13:03:12.555Z,23.60
2018-11-27T13:05:42.976Z,25.90
2018-11-27T13:08:27.015Z,24.93
2018-11-27T13:10:55.595Z,22.83
2018-11-27T13:13:23.975Z,22.13
2018-11-27T13:15:52.402Z,24.37
2018-11-27T13:18:20.812Z,19.03
2018-11-27T13:20:49.246Z,21.37
2018-11-27T13:23:17.753Z,24.67
2018-11-27T13:25:46.215Z,19.73
2018-11-27T13:28:15.532Z,23.57
2018-11-27T13:30:51.184Z,21.60
2018-11-27T13:33:28.608Z,21.57
2018-11-27T13:35:57.096Z,19.57
2018-11-27T13:38:26.164Z,20.07
2018-11-27T13:40:53.959Z,20.03
2018-11-27T13:43:27.732Z,19.97
2018-11-27T13:45:57.375Z,18.77
2018-11-27T13:48:25.912Z,20.57
2018-11-27T13:50:54.330Z,21.47
2018-11-27T13:53:22.760Z,18.83
2018-11-27T13:55:51.244Z,19.07
2018-11-27T13:58:19.685Z,19.23
2018-11-27T14:00:48.148Z,22.63
2018-11-27T14:03:16.719Z,21.37
2018-11-27T14:05:45.160Z,19.03
2018-11-27T14:08:13.577Z,19.73
2018-11-27T14:10:41.988Z,19.50
2018-11-27T14:13:10.410Z,22.37
2018-11-27T14:15:38.905Z,20.87
2018-11-27T14:18:08.334Z,19.67
2018-11-27T14:20:37.153Z,22.87
2018-11-27T14:23:06.231Z,22.20
2018-11-27T14:25:34.778Z,22.13
2018-11-27T14:28:03.196Z,20.90
2018-11-27T14:30:31.735Z,19.87
2018-11-27T14:33:00.235Z,20.80
2018-11-27T14:35:28.647Z,18.97
2018-11-27T14:37:57.091Z,19.10
2018-11-27T14:40:27.491Z,18.27
2018-11-27T14:42:55.898Z,19.57
2018-11-27T14:45:25.605Z,18.97
2018-11-27T14:47:55.185Z,21.33
2018-11-27T14:50:23.593Z,20.53
2018-11-27T14:52:52.028Z,20.37
2018-11-27T14:55:35.958Z,20.70
2018-11-27T14:58:04.654Z,20.50
2018-11-27T15:00:33.099Z,19.57
2018-11-27T15:03:01.511Z,20.83
2018-11-27T15:05:34.192Z,22.30
2018-11-27T15:08:03.374Z,17.57
2018-11-27T15:10:32.464Z,19.57
2018-11-27T15:13:00.863Z,21.60
2018-11-27T15:15:29.272Z,26.43
2018-11-27T15:17:58.258Z,22.20
2018-11-27T15:20:26.699Z,23.50
2018-11-27T15:22:55.476Z,20.80
2018-11-27T15:25:23.984Z,22.77
2018-11-27T15:27:52.384Z,25.33
2018-11-27T15:30:22.162Z,22.60
2018-11-27T15:32:51.555Z,23.00
2018-11-27T15:35:20.025Z,21.80
2018-11-27T15:37:48.451Z,23.47
2018-11-27T15:40:18.963Z,21.33
2018-11-27T15:42:47.361Z,22.40
2018-11-27T15:45:19.334Z,22.10
2018-11-27T15:47:47.954Z,24.53
2018-11-27T15:50:16.359Z,24.83
2018-11-27T15:52:44.828Z,21.17
2018-11-27T15:55:16.372Z,22.67
2018-11-27T15:57:45.481Z,23.90
2018-11-27T16:00:16.364Z,23.97
2018-11-27T16:02:44.977Z,24.93
2018-11-27T16:05:14.311Z,24.10
2018-11-27T16:07:42.826Z,28.00
2018-11-27T16:10:12.548Z,21.30
2018-11-27T16:12:41.606Z,23.93
2018-11-27T16:15:14.180Z,25.33
2018-11-27T16:17:42.785Z,23.53
2018-11-27T16:20:15.452Z,34.40
2018-11-27T16:22:44.897Z,28.57
2018-11-27T16:25:14.335Z,24.03
2018-11-27T16:27:42.983Z,24.00
2018-11-27T16:30:27.398Z,22.73
2018-11-27T16:32:56.519Z,21.73
2018-11-27T16:35:24.937Z,24.67
2018-11-27T16:37:54.751Z,27.47
2018-11-27T16:40:25.068Z,24.97
2018-11-27T16:42:53.496Z,23.83
2018-11-27T16:45:23.000Z,23.27
2018-11-27T16:47:51.784Z,23.10
2018-11-27T16:50:21.233Z,28.07
2018-11-27T16:52:49.932Z,27.07
2018-11-27T16:55:19.543Z,23.33
2018-11-27T16:57:47.970Z,24.47
2018-11-27T17:00:24.256Z,25.17
2018-11-27T17:02:54.856Z,25.90
2018-11-27T17:05:23.322Z,27.90
2018-11-27T17:07:51.701Z,27.00
2018-11-27T17:10:20.965Z,26.07
2018-11-27T17:12:50.755Z,27.10
2018-11-27T17:15:22.193Z,27.07
2018-11-27T17:17:50.719Z,32.43
2018-11-27T17:20:28.266Z,27.77
2018-11-27T17:22:58.154Z,26.50
2018-11-27T17:25:26.870Z,27.27
2018-11-27T17:27:56.584Z,27.70
2018-11-27T17:30:29.340Z,27.00
2018-11-27T17:32:59.223Z,26.10
2018-11-27T17:35:26.991Z,25.37
2018-11-27T17:37:55.593Z,33.37
2018-11-27T17:40:24.023Z,29.50
2018-11-27T17:42:53.142Z,27.20
2018-11-27T17:45:21.836Z,28.13
2018-11-27T17:47:50.378Z,29.23
2018-11-27T17:50:18.866Z,26.67
2018-11-27T17:52:47.295Z,26.33
2018-11-27T17:55:15.719Z,30.53
2018-11-27T17:57:44.103Z,29.77
2018-11-27T18:00:19.440Z,29.17
2018-11-27T18:02:50.306Z,27.70
2018-11-27T18:05:18.775Z,25.83
2018-11-27T18:07:47.186Z,28.33
2018-11-27T18:10:15.606Z,25.80
2018-11-27T18:12:44.047Z,32.70
2018-11-27T18:15:14.604Z,28.53
2018-11-27T18:17:43.131Z,28.10
2018-11-27T18:20:12.488Z,30.33
2018-11-27T18:22:40.928Z,29.30
2018-11-27T18:25:11.579Z,32.87
2018-11-27T18:27:40.494Z,27.83
2018-11-27T18:30:15.981Z,27.50
2018-11-27T18:32:44.508Z,30.43
2018-11-27T18:35:14.155Z,29.60
2018-11-27T18:37:42.584Z,28.00
2018-11-27T18:40:13.493Z,27.67
2018-11-27T18:42:42.036Z,28.53
2018-11-27T18:45:19.291Z,28.03
2018-11-27T18:47:47.798Z,30.33
2018-11-27T18:50:16.476Z,27.20
2018-11-27T18:52:44.939Z,29.17
2018-11-27T18:55:15.432Z,28.50
2018-11-27T18:57:44.743Z,27.87
2018-11-27T19:00:21.987Z,35.37
2018-11-27T19:02:50.473Z,29.13
2018-11-27T19:05:18.919Z,27.83
2018-11-27T19:07:47.355Z,28.07
2018-11-27T19:10:20.887Z,28.57
2018-11-27T19:12:50.134Z,30.43
2018-11-27T19:15:23.142Z,29.17
2018-11-27T19:17:54.195Z,29.47
2018-11-27T19:20:22.628Z,66.87
2018-11-27T19:22:51.421Z,30.27
2018-11-27T19:25:19.894Z,30.17
2018-11-27T19:27:48.586Z,30.47
2018-11-27T19:30:18.348Z,30.33
2018-11-27T19:32:46.754Z,27.47
2018-11-27T19:35:17.763Z,29.33
2018-11-27T19:37:47.120Z,30.53
2018-11-27T19:40:16.988Z,31.43
2018-11-27T19:42:45.553Z,27.63
2018-11-27T19:45:20.436Z,28.97
2018-11-27T19:47:50.488Z,35.90
2018-11-27T19:50:18.946Z,33.83
2018-11-27T19:52:48.536Z,33.83
2018-11-27T19:55:18.471Z,30.07
2018-11-27T19:57:47.567Z,30.27
2018-11-27T20:00:20.611Z,31.60
2018-11-27T20:02:49.099Z,33.20
2018-11-27T20:05:18.911Z,32.03
2018-11-27T20:07:47.667Z,34.40
2018-11-27T20:10:16.467Z,34.43
2018-11-27T20:12:44.936Z,30.53
2018-11-27T20:15:16.839Z,34.37
2018-11-27T20:17:45.922Z,32.70
2018-11-27T20:20:16.361Z,34.03
2018-11-27T20:22:44.826Z,35.13
2018-11-27T20:25:16.470Z,34.87
2018-11-27T20:27:44.873Z,39.10
2018-11-27T20:30:16.916Z,35.67
2018-11-27T20:32:54.707Z,34.53
2018-11-27T20:35:23.198Z,35.37
2018-11-27T20:37:52.624Z,34.30
2018-11-27T20:40:22.127Z,36.53
2018-11-27T20:42:50.569Z,38.23
2018-11-27T20:45:24.774Z,35.67
2018-11-27T20:47:57.826Z,34.30
2018-11-27T20:50:26.447Z,37.90
2018-11-27T20:52:54.927Z,35.43
2018-11-27T20:55:23.405Z,38.07
2018-11-27T20:57:53.525Z,36.67
2018-11-27T21:00:24.131Z,38.33
2018-11-27T21:02:54.293Z,34.67
2018-11-27T21:05:22.772Z,38.67
2018-11-27T21:07:51.213Z,33.90
2018-11-27T21:10:19.868Z,36.17
2018-11-27T21:12:48.312Z,37.90
2018-11-27T21:15:17.938Z,36.73
2018-11-27T21:17:46.419Z,55.53
2018-11-27T21:20:15.949Z,42.67
2018-11-27T21:22:44.446Z,36.60
2018-11-27T21:25:23.511Z,38.30
2018-11-27T21:27:56.278Z,36.43
2018-11-27T21:30:24.826Z,35.97
2018-11-27T21:32:53.224Z,39.37
2018-11-27T21:35:22.821Z,36.23
2018-11-27T21:37:51.253Z,34.50
2018-11-27T21:40:19.736Z,37.30
2018-11-27T21:42:48.238Z,40.50
2018-11-27T21:45:25.696Z,34.73
2018-11-27T21:47:55.023Z,35.90
2018-11-27T21:50:29.266Z,34.97
2018-11-27T21:52:59.184Z,45.90
2018-11-27T21:55:27.619Z,39.40
2018-11-27T21:57:56.063Z,38.97
2018-11-27T22:00:25.442Z,37.33
2018-11-27T22:02:54.680Z,38.37
2018-11-27T22:05:23.219Z,35.47
2018-11-27T22:07:51.756Z,37.03
2018-11-27T22:10:21.626Z,37.73
2018-11-27T22:12:56.559Z,34.63
2018-11-27T22:15:35.182Z,38.27
2018-11-27T22:18:04.480Z,39.57
2018-11-27T22:20:32.852Z,38.50
2018-11-27T22:23:01.305Z,40.37
2018-11-27T22:25:29.735Z,43.70
2018-11-27T22:27:58.150Z,36.60
2018-11-27T22:30:26.610Z,39.87
2018-11-27T22:32:56.472Z,43.43
2018-11-27T22:35:25.057Z,37.03
2018-11-27T22:37:53.595Z,37.13
2018-11-27T22:40:23.754Z,39.60
2018-11-27T22:42:52.953Z,39.10
2018-11-27T22:45:40.264Z,37.57
2018-11-27T22:48:10.258Z,38.53
2018-11-27T22:50:39.564Z,36.87
2018-11-27T22:53:09.822Z,40.47
2018-11-27T22:55:38.230Z,38.17
2018-11-27T22:58:07.840Z,40.37
2018-11-27T23:00:41.646Z,39.63
2018-11-27T23:03:10.743Z,41.60
2018-11-27T23:05:39.276Z,40.77
2018-11-27T23:08:08.852Z,41.00
2018-11-27T23:10:39.423Z,40.70
2018-11-27T23:13:12.249Z,40.17
2018-11-27T23:15:41.343Z,40.70
2018-11-27T23:18:10.016Z,40.20
2018-11-27T23:20:38.919Z,41.40
2018-11-27T23:23:07.387Z,40.97
2018-11-27T23:25:36.691Z,41.03
2018-11-27T23:28:05.166Z,41.50
2018-11-27T23:30:33.606Z,43.07
2018-11-27T23:33:02.402Z,42.77
2018-11-27T23:35:30.819Z,43.93
2018-11-27T23:37:59.206Z,41.40
2018-11-27T23:40:27.618Z,42.87
2018-11-27T23:42:56.601Z,41.13
2018-11-27T23:45:24.990Z,39.27
2018-11-27T23:47:53.384Z,38.80
2018-11-27T23:50:22.519Z,38.57
2018-11-27T23:52:50.938Z,39.17
2018-11-27T23:55:20.206Z,37.90
2018-11-27T23:57:48.900Z,38.10
